Time;durP1;ratioP1;P1;durP2;ratioP2;P2;SDS_P1;SDS_P2;PMS_P1;PMS_P2;Temp;Humidity;BMP_temperature;BMP_pressure;BME280_temperature;BME280_humidity;BME280_pressure;Samples;Min_cycle;Max_cycle;Signal;HPM_P1;HPM_P2
2023/06/18 00:01:58;;;;;;;20.17;14.88;;;17.40;99.90;;;;;;5031908;28;20120;-65
2023/06/18 00:04:25;;;;;;;21.70;15.18;;;17.40;99.90;;;;;;5031804;28;20419;-64
2023/06/18 00:06:51;;;;;;;17.55;14.18;;;17.30;99.90;;;;;;5031902;28;20395;-65
2023/06/18 00:09:17;;;;;;;21.25;15.20;;;17.30;99.90;;;;;;5032134;28;20049;-64
2023/06/18 00:11:42;;;;;;;21.67;14.50;;;17.30;99.90;;;;;;5031973;28;20120;-65
2023/06/18 00:14:08;;;;;;;20.52;14.65;;;17.40;99.90;;;;;;5031835;28;20048;-65
2023/06/18 00:16:33;;;;;;;19.55;14.45;;;17.40;99.90;;;;;;5032028;28;20041;-64
2023/06/18 00:18:59;;;;;;;28.20;17.85;;;17.30;99.90;;;;;;5032024;28;20518;-64
2023/06/18 00:21:24;;;;;;;22.30;16.35;;;17.20;99.90;;;;;;5031675;28;20103;-64
2023/06/18 00:23:50;;;;;;;22.13;15.73;;;17.20;99.90;;;;;;5031731;28;20069;-65
2023/06/18 00:26:16;;;;;;;23.17;15.98;;;17.20;99.90;;;;;;5031869;28;20384;-64
2023/06/18 00:28:41;;;;;;;21.85;16.27;;;17.20;99.90;;;;;;5031926;28;20044;-65
2023/06/18 00:31:07;;;;;;;25.23;16.77;;;17.20;99.90;;;;;;5031890;28;20052;-64
2023/06/18 00:33:33;;;;;;;26.40;17.05;;;17.30;99.90;;;;;;5031430;28;20471;-64
2023/06/18 00:35:59;;;;;;;22.33;16.58;;;17.30;99.90;;;;;;5031720;28;20083;-65
2023/06/18 00:38:28;;;;;;;23.38;16.25;;;17.30;99.90;;;;;;5031901;28;20044;-64
2023/06/18 00:40:54;;;;;;;22.63;16.50;;;17.30;99.90;;;;;;5031930;28;20042;-64
2023/06/18 00:43:20;;;;;;;24.98;17.00;;;17.30;99.90;;;;;;5031437;28;20037;-65
2023/06/18 00:45:46;;;;;;;24.05;17.15;;;17.20;99.90;;;;;;5031798;28;20041;-65
2023/06/18 00:48:13;;;;;;;24.38;17.40;;;17.20;99.90;;;;;;5031645;28;20069;-65
2023/06/18 00:50:42;;;;;;;29.58;18.10;;;17.10;99.90;;;;;;5031392;28;20041;-65
2023/06/18 00:53:09;;;;;;;24.35;17.73;;;17.00;99.90;;;;;;5031599;28;20451;-64
2023/06/18 00:55:38;;;;;;;26.15;18.70;;;16.90;99.90;;;;;;5031507;28;20045;-64
2023/06/18 00:58:05;;;;;;;27.55;19.23;;;16.90;99.90;;;;;;5031570;28;20540;-64
2023/06/18 01:00:34;;;;;;;26.58;19.02;;;16.90;99.90;;;;;;5030385;28;20072;-64
2023/06/18 01:03:02;;;;;;;28.83;19.92;;;16.90;99.90;;;;;;5030684;28;20037;-65
2023/06/18 01:05:31;;;;;;;24.92;18.65;;;17.00;99.90;;;;;;5030354;28;20045;-65
2023/06/18 01:07:59;;;;;;;28.55;19.50;;;16.90;99.90;;;;;;5031002;28;20120;-65
2023/06/18 01:10:28;;;;;;;29.48;19.80;;;17.00;99.90;;;;;;5029800;28;20037;-64
2023/06/18 01:12:58;;;;;;;29.00;19.80;;;17.00;99.90;;;;;;5029954;28;20045;-65
2023/06/18 01:15:29;;;;;;;29.45;19.90;;;17.00;99.90;;;;;;5031690;28;20033;-65
2023/06/18 01:17:57;;;;;;;28.48;19.25;;;16.90;99.90;;;;;;5031448;28;20479;-65
2023/06/18 01:20:25;;;;;;;30.75;19.42;;;16.90;99.90;;;;;;5031552;28;20044;-64
2023/06/18 01:23:02;;;;;;;29.35;19.67;;;16.80;99.90;;;;;;5030130;28;20522;-65
2023/06/18 01:25:36;;;;;;;30.02;20.35;;;16.90;99.90;;;;;;5031123;28;20038;-64
2023/06/18 01:28:07;;;;;;;31.35;21.00;;;16.80;99.90;;;;;;5030937;28;20068;-65
2023/06/18 01:30:39;;;;;;;30.40;19.80;;;16.80;99.90;;;;;;5031291;28;20491;-64
2023/06/18 01:33:09;;;;;;;31.27;19.55;;;16.80;99.90;;;;;;5031242;28;20083;-65
2023/06/18 01:35:34;;;;;;;30.70;21.10;;;16.70;99.90;;;;;;5033891;28;20491;-64
2023/06/18 01:38:23;;;;;;;27.70;20.27;;;16.70;99.90;;;;;;5034862;28;20048;-64
2023/06/18 01:41:05;;;;;;;29.38;20.30;;;16.70;99.90;;;;;;5033543;28;20041;-65
2023/06/18 01:43:41;;;;;;;32.00;21.85;;;16.70;99.90;;;;;;5033261;28;20128;-65
2023/06/18 01:46:10;;;;;;;31.00;20.98;;;16.60;99.90;;;;;;5034694;28;20073;-64
2023/06/18 01:48:40;;;;;;;31.77;20.13;;;16.60;99.90;;;;;;5033409;28;20052;-64
2023/06/18 01:51:07;;;;;;;27.67;20.13;;;16.60;99.90;;;;;;5034515;28;20495;-65
2023/06/18 01:53:35;;;;;;;28.88;19.85;;;16.60;99.90;;;;;;5034229;28;20087;-64
2023/06/18 01:56:02;;;;;;;31.75;20.60;;;16.70;99.90;;;;;;5034627;28;20037;-64
2023/06/18 01:58:31;;;;;;;29.05;21.15;;;16.70;99.90;;;;;;5034346;28;20386;-65
2023/06/18 02:00:58;;;;;;;31.05;20.88;;;16.70;99.90;;;;;;5028471;28;20096;-65
2023/06/18 02:03:24;;;;;;;32.17;21.85;;;16.60;99.90;;;;;;5024117;28;20408;-64
2023/06/18 02:05:50;;;;;;;30.60;20.45;;;16.60;99.90;;;;;;5032064;28;20176;-65
2023/06/18 02:08:16;;;;;;;29.63;20.88;;;16.60;99.90;;;;;;5032937;28;20045;-64
2023/06/18 02:10:41;;;;;;;29.20;20.20;;;16.60;99.90;;;;;;5034229;28;20201;-64
2023/06/18 02:13:08;;;;;;;32.85;21.92;;;16.50;99.90;;;;;;5032668;28;20052;-65
2023/06/18 02:15:34;;;;;;;35.58;22.38;;;16.60;99.90;;;;;;5033987;28;20037;-65
2023/06/18 02:17:59;;;;;;;30.60;22.20;;;16.60;99.90;;;;;;5033811;28;20506;-64
2023/06/18 02:20:25;;;;;;;35.70;21.17;;;16.60;99.90;;;;;;5032846;28;20046;-64
2023/06/18 02:22:52;;;;;;;33.15;22.45;;;16.60;99.90;;;;;;5032820;28;20038;-65
2023/06/18 02:25:28;;;;;;;34.35;22.17;;;16.50;99.90;;;;;;5033897;28;20076;-65
2023/06/18 02:27:55;;;;;;;29.35;21.00;;;16.40;99.90;;;;;;5032992;28;20127;-65
2023/06/18 02:30:21;;;;;;;28.48;20.58;;;16.40;99.90;;;;;;5033883;28;20044;-64
2023/06/18 02:32:48;;;;;;;32.10;22.10;;;16.30;99.90;;;;;;5033476;28;20483;-65
2023/06/18 02:35:15;;;;;;;35.40;24.02;;;16.20;99.90;;;;;;5033121;28;20112;-64
2023/06/18 02:37:42;;;;;;;34.75;22.73;;;16.20;99.90;;;;;;5033484;28;20053;-64
2023/06/18 02:40:09;;;;;;;30.52;21.15;;;16.20;99.90;;;;;;5033583;28;20042;-64
2023/06/18 02:42:35;;;;;;;33.08;21.70;;;16.10;99.90;;;;;;5033538;28;20080;-65
2023/06/18 02:45:02;;;;;;;33.88;21.33;;;16.10;99.90;;;;;;5032885;28;20080;-64
2023/06/18 02:47:28;;;;;;;30.30;20.80;;;16.20;99.90;;;;;;5032930;28;20048;-64
2023/06/18 02:49:54;;;;;;;31.52;19.83;;;16.30;99.90;;;;;;5032570;28;20041;-64
2023/06/18 02:52:20;;;;;;;30.05;19.40;;;16.20;99.90;;;;;;5033310;28;20491;-65
2023/06/18 02:54:45;;;;;;;29.38;20.58;;;16.20;99.90;;;;;;5033118;28;20033;-64
2023/06/18 02:57:11;;;;;;;32.90;21.48;;;16.20;99.90;;;;;;5033375;28;20449;-64
2023/06/18 02:59:37;;;;;;;33.92;22.85;;;16.20;99.90;;;;;;5033166;28;20042;-65
2023/06/18 03:02:04;;;;;;;33.53;21.88;;;16.10;99.90;;;;;;5033030;28;20045;-65
2023/06/18 03:04:30;;;;;;;34.80;22.40;;;16.10;99.90;;;;;;5032822;28;20526;-64
2023/06/18 03:06:58;;;;;;;30.58;21.00;;;16.00;99.90;;;;;;5033170;28;20065;-65
2023/06/18 03:09:24;;;;;;;33.47;22.60;;;15.90;99.90;;;;;;5032000;28;20095;-64
2023/06/18 03:11:49;;;;;;;33.95;21.98;;;15.90;99.90;;;;;;5033058;28;20041;-64
2023/06/18 03:14:15;;;;;;;31.55;21.40;;;15.90;99.90;;;;;;5032517;28;20074;-64
2023/06/18 03:16:40;;;;;;;33.05;22.25;;;15.90;99.90;;;;;;5033229;28;20040;-64
2023/06/18 03:19:06;;;;;;;34.60;22.30;;;15.90;99.90;;;;;;5032832;28;20046;-65
2023/06/18 03:21:32;;;;;;;31.00;22.13;;;16.00;99.90;;;;;;5031662;28;20139;-64
2023/06/18 03:23:58;;;;;;;33.55;21.73;;;16.00;99.90;;;;;;5032338;28;20045;-65
2023/06/18 03:26:24;;;;;;;35.33;22.35;;;16.00;99.90;;;;;;5032714;28;20407;-65
2023/06/18 03:28:50;;;;;;;35.40;23.42;;;15.90;99.90;;;;;;5032464;28;20041;-64
2023/06/18 03:31:16;;;;;;;35.03;22.48;;;16.00;99.90;;;;;;5032958;28;20034;-65
2023/06/18 03:33:41;;;;;;;37.97;23.67;;;16.00;99.90;;;;;;5031707;28;20041;-65
2023/06/18 03:36:07;;;;;;;33.70;21.92;;;15.90;99.90;;;;;;5032757;28;20083;-64
2023/06/18 03:38:33;;;;;;;34.88;23.35;;;15.90;99.90;;;;;;5032569;28;20041;-64
2023/06/18 03:40:58;;;;;;;37.25;23.08;;;15.90;99.90;;;;;;5032006;28;20103;-64
2023/06/18 03:43:24;;;;;;;44.10;23.58;;;15.90;99.90;;;;;;5031772;28;20048;-64
2023/06/18 03:45:49;;;;;;;37.97;24.05;;;15.90;99.90;;;;;;5032441;28;20029;-64
2023/06/18 03:48:15;;;;;;;38.28;24.08;;;15.90;99.90;;;;;;5032443;28;20041;-64
2023/06/18 03:50:41;;;;;;;38.05;24.17;;;15.90;99.90;;;;;;5032078;28;20492;-64
2023/06/18 03:53:07;;;;;;;34.38;22.63;;;15.90;99.90;;;;;;5032116;28;20069;-64
2023/06/18 03:55:32;;;;;;;35.90;23.30;;;15.90;99.90;;;;;;5031723;28;20037;-64
2023/06/18 03:57:58;;;;;;;36.40;23.42;;;15.90;99.90;;;;;;5031374;28;20483;-64
2023/06/18 04:00:24;;;;;;;38.10;24.38;;;16.00;99.90;;;;;;5028973;28;20072;-64
2023/06/18 04:02:52;;;;;;;41.60;24.50;;;16.00;99.90;;;;;;5041341;22;20042;-63
2023/06/18 04:05:17;;;;;;;38.72;24.95;;;16.10;99.90;;;;;;5020157;28;20064;-64
2023/06/18 04:07:43;;;;;;;38.28;24.23;;;16.10;99.90;;;;;;5019488;28;20484;-64
2023/06/18 04:10:08;;;;;;;40.90;25.15;;;16.10;99.90;;;;;;5012049;28;20034;-64
2023/06/18 04:12:34;;;;;;;42.85;26.17;;;16.20;99.90;;;;;;5012009;28;20117;-64
2023/06/18 04:15:00;;;;;;;41.03;26.23;;;16.20;99.90;;;;;;5011372;28;20407;-64
2023/06/18 04:17:26;;;;;;;43.20;26.08;;;16.20;99.90;;;;;;5012456;28;20484;-64
2023/06/18 04:19:52;;;;;;;41.17;25.17;;;16.30;99.90;;;;;;5012235;28;20037;-64
2023/06/18 04:22:18;;;;;;;41.10;25.83;;;16.30;99.90;;;;;;5012183;28;20122;-64
2023/06/18 04:24:43;;;;;;;42.50;26.73;;;16.40;99.90;;;;;;5011845;28;20124;-64
2023/06/18 04:27:09;;;;;;;42.15;25.80;;;16.40;99.90;;;;;;5015432;28;20065;-64
2023/06/18 04:29:34;;;;;;;37.75;23.77;;;16.40;99.90;;;;;;5030536;28;20046;-64
2023/06/18 04:32:00;;;;;;;41.47;26.20;;;16.50;99.90;;;;;;5031903;28;20041;-64
2023/06/18 04:34:25;;;;;;;43.13;25.40;;;16.50;99.90;;;;;;5031535;28;20033;-64
2023/06/18 04:36:51;;;;;;;44.53;25.95;;;16.60;99.90;;;;;;5031880;28;20029;-64
2023/06/18 04:39:17;;;;;;;44.22;27.33;;;16.60;99.90;;;;;;5031711;28;20046;-64
2023/06/18 04:41:42;;;;;;;45.63;26.08;;;16.70;99.90;;;;;;5031623;28;20045;-64
2023/06/18 04:44:12;;;;;;;42.13;26.38;;;16.50;99.90;;;;;;5031548;28;20091;-64
2023/06/18 04:46:38;;;;;;;43.47;26.42;;;16.60;99.90;;;;;;5030454;28;20049;-64
2023/06/18 04:49:04;;;;;;;44.50;26.58;;;16.70;99.90;;;;;;5031638;28;20402;-64
2023/06/18 04:51:30;;;;;;;41.72;27.55;;;16.70;99.90;;;;;;5031581;28;20041;-64
2023/06/18 04:53:56;;;;;;;41.13;25.20;;;16.70;99.90;;;;;;5031333;28;20048;-64
2023/06/18 04:56:21;;;;;;;41.70;26.58;;;16.80;99.90;;;;;;5030447;28;20041;-64
2023/06/18 04:58:47;;;;;;;43.35;26.33;;;16.80;99.90;;;;;;5031551;28;20134;-64
2023/06/18 05:01:13;;;;;;;44.10;26.05;;;16.80;99.90;;;;;;5031432;28;20041;-64
2023/06/18 05:03:39;;;;;;;44.00;26.70;;;16.80;99.90;;;;;;5031133;28;20041;-64
2023/06/18 05:06:05;;;;;;;38.50;24.35;;;16.90;99.90;;;;;;5031609;28;20049;-64
2023/06/18 05:08:31;;;;;;;38.33;24.70;;;17.00;99.90;;;;;;5031618;28;20446;-64
2023/06/18 05:10:56;;;;;;;41.17;26.02;;;17.10;99.90;;;;;;5035046;28;20091;-64
2023/06/18 05:13:22;;;;;;;40.65;25.52;;;17.20;99.90;;;;;;5035219;28;20042;-63
2023/06/18 05:15:47;;;;;;;42.40;25.67;;;17.30;99.90;;;;;;5035307;28;20550;-64
2023/06/18 05:18:13;;;;;;;40.53;26.58;;;17.40;99.90;;;;;;5035396;28;20095;-64
2023/06/18 05:20:38;;;;;;;40.78;25.98;;;17.50;99.90;;;;;;5035069;28;20491;-64
2023/06/18 05:23:04;;;;;;;39.80;25.95;;;17.60;99.90;;;;;;5035091;28;20120;-64
2023/06/18 05:25:30;;;;;;;44.28;26.58;;;17.70;99.90;;;;;;5033358;28;20052;-64
2023/06/18 05:27:55;;;;;;;39.67;25.25;;;17.80;99.90;;;;;;5035214;28;20277;-64
2023/06/18 05:30:21;;;;;;;38.30;25.27;;;17.90;99.90;;;;;;5035183;28;20472;-64
2023/06/18 05:32:46;;;;;;;40.38;25.70;;;18.20;99.90;;;;;;5034995;28;20399;-64
2023/06/18 05:35:12;;;;;;;45.22;26.30;;;18.30;99.90;;;;;;5034578;28;20494;-64
2023/06/18 05:37:38;;;;;;;42.78;26.00;;;18.60;99.90;;;;;;5034819;28;20095;-64
2023/06/18 05:40:04;;;;;;;43.97;25.83;;;18.70;99.90;;;;;;5034686;28;20045;-64
2023/06/18 05:42:29;;;;;;;44.90;26.95;;;18.80;99.90;;;;;;5034892;28;20142;-64
2023/06/18 05:44:55;;;;;;;41.75;26.85;;;18.90;99.90;;;;;;5034463;28;20503;-64
2023/06/18 05:47:21;;;;;;;43.30;25.88;;;19.00;99.90;;;;;;5033129;28;20124;-64
2023/06/18 05:49:46;;;;;;;43.63;25.77;;;19.10;99.90;;;;;;5034288;28;20483;-64
2023/06/18 05:52:12;;;;;;;40.75;25.92;;;19.20;99.90;;;;;;5034572;28;20033;-64
2023/06/18 05:54:39;;;;;;;43.13;26.83;;;19.20;99.90;;;;;;5033268;28;20041;-64
2023/06/18 05:57:05;;;;;;;42.97;25.23;;;19.30;99.90;;;;;;5034563;28;20045;-64
2023/06/18 05:59:30;;;;;;;39.20;24.45;;;19.30;99.90;;;;;;5034574;28;20037;-64
2023/06/18 06:01:56;;;;;;;41.97;25.95;;;19.30;99.90;;;;;;5034536;28;20095;-64
2023/06/18 06:04:22;;;;;;;37.45;25.15;;;19.40;99.90;;;;;;5032587;28;20057;-64
2023/06/18 06:06:48;;;;;;;41.67;25.02;;;19.50;99.90;;;;;;5034241;28;20111;-64
2023/06/18 06:09:13;;;;;;;40.53;24.60;;;19.60;99.90;;;;;;5034170;28;20491;-64
2023/06/18 06:11:40;;;;;;;39.65;24.25;;;19.70;99.90;;;;;;5034492;28;20037;-64
2023/06/18 06:14:05;;;;;;;35.97;23.27;;;19.80;99.90;;;;;;5032605;28;20041;-64
2023/06/18 06:16:31;;;;;;;36.60;22.77;;;19.90;99.90;;;;;;5033875;28;20037;-64
2023/06/18 06:18:56;;;;;;;33.50;21.80;;;20.00;99.90;;;;;;5033718;28;20124;-64
2023/06/18 06:21:22;;;;;;;38.53;22.77;;;20.10;99.90;;;;;;5033611;28;20045;-64
2023/06/18 06:23:48;;;;;;;34.78;21.77;;;20.20;99.90;;;;;;5033576;28;20079;-64
2023/06/18 06:26:13;;;;;;;34.90;23.08;;;20.30;99.90;;;;;;5016003;28;20678;-64
2023/06/18 06:28:40;;;;;;;33.92;22.23;;;20.30;99.90;;;;;;5033551;28;20398;-64
2023/06/18 06:31:05;;;;;;;33.03;21.05;;;20.40;99.90;;;;;;5033715;28;20033;-64
2023/06/18 06:33:31;;;;;;;32.42;20.85;;;20.50;99.90;;;;;;5033479;28;20406;-64
2023/06/18 06:35:56;;;;;;;28.70;20.60;;;20.60;99.90;;;;;;5033717;28;20034;-64
2023/06/18 06:38:22;;;;;;;30.38;19.52;;;20.70;99.90;;;;;;5033661;28;20045;-64
2023/06/18 06:40:48;;;;;;;28.25;19.15;;;20.80;99.90;;;;;;5033899;28;20580;-64
2023/06/18 06:43:13;;;;;;;31.52;20.95;;;20.90;99.90;;;;;;5033628;28;20073;-64
2023/06/18 06:45:39;;;;;;;30.65;20.10;;;21.00;99.90;;;;;;5033324;28;20410;-64
2023/06/18 06:48:04;;;;;;;28.75;19.15;;;21.10;99.90;;;;;;5033594;28;20045;-64
2023/06/18 06:50:30;;;;;;;28.20;18.90;;;21.20;99.90;;;;;;5033598;28;20041;-64
2023/06/18 06:52:56;;;;;;;29.17;20.30;;;21.40;99.90;;;;;;5032819;28;20132;-64
2023/06/18 06:55:21;;;;;;;30.55;19.77;;;21.50;99.90;;;;;;5032963;28;20073;-64
2023/06/18 06:57:47;;;;;;;32.15;20.00;;;21.60;99.90;;;;;;5033348;28;20041;-64
2023/06/18 07:00:13;;;;;;;29.02;18.88;;;21.70;99.90;;;;;;5033128;28;20090;-64
2023/06/18 07:02:38;;;;;;;28.10;19.48;;;21.90;99.90;;;;;;5033053;28;20045;-64
2023/06/18 07:05:06;;;;;;;27.70;19.73;;;22.00;99.90;;;;;;5032856;28;20487;-64
2023/06/18 07:07:32;;;;;;;28.17;19.05;;;22.20;99.90;;;;;;5031519;28;20143;-64
2023/06/18 07:09:57;;;;;;;29.10;18.83;;;22.30;99.90;;;;;;5015388;28;20507;-64
2023/06/18 07:12:23;;;;;;;29.90;18.52;;;22.50;99.90;;;;;;5033191;28;20512;-64
2023/06/18 07:14:48;;;;;;;26.10;18.30;;;22.60;99.90;;;;;;5032933;28;20041;-64
2023/06/18 07:17:14;;;;;;;26.17;17.75;;;22.80;99.90;;;;;;5032011;28;20482;-64
2023/06/18 07:19:40;;;;;;;25.60;17.98;;;22.90;99.90;;;;;;5032987;28;20045;-64
2023/06/18 07:22:05;;;;;;;24.98;17.17;;;23.00;99.90;;;;;;5032340;28;20064;-64
2023/06/18 07:24:31;;;;;;;25.88;17.55;;;23.20;99.90;;;;;;5032897;28;20044;-64
2023/06/18 07:26:56;;;;;;;22.67;16.38;;;23.30;99.90;;;;;;5032408;28;20080;-64
2023/06/18 07:29:22;;;;;;;27.15;17.02;;;23.30;99.90;;;;;;5032912;28;20044;-64
2023/06/18 07:31:48;;;;;;;23.30;15.55;;;23.40;99.90;;;;;;5032181;28;20136;-64
2023/06/18 07:34:16;;;;;;;26.42;16.00;;;23.50;99.90;;;;;;5032339;28;20038;-64
2023/06/18 07:36:41;;;;;;;27.17;16.98;;;23.60;99.90;;;;;;5032436;28;20052;-64
2023/06/18 07:39:08;;;;;;;23.77;16.17;;;23.60;99.90;;;;;;5032827;28;20045;-64
2023/06/18 07:41:34;;;;;;;25.45;15.88;;;23.70;99.90;;;;;;5031046;28;20080;-64
2023/06/18 07:43:59;;;;;;;21.35;15.90;;;23.80;99.90;;;;;;5032302;28;20076;-64
2023/06/18 07:46:25;;;;;;;23.60;16.92;;;24.00;99.90;;;;;;5031991;28;20120;-64
2023/06/18 07:48:51;;;;;;;23.85;17.48;;;24.10;99.90;;;;;;5032465;28;20042;-64
2023/06/18 07:51:16;;;;;;;23.75;16.42;;;24.20;99.90;;;;;;5031416;28;20120;-64
2023/06/18 07:53:42;;;;;;;22.40;16.45;;;24.30;99.90;;;;;;5032216;28;20069;-63
2023/06/18 07:56:07;;;;;;;26.25;17.50;;;24.50;99.90;;;;;;5032307;28;20408;-64
2023/06/18 07:58:33;;;;;;;22.85;14.75;;;24.60;99.90;;;;;;5032438;28;20029;-64
2023/06/18 08:00:58;;;;;;;20.00;14.40;;;24.90;99.90;;;;;;5031500;28;20034;-64
2023/06/18 08:03:24;;;;;;;19.40;14.45;;;25.00;99.90;;;;;;5030863;28;20048;-64
2023/06/18 08:05:50;;;;;;;23.65;14.82;;;25.10;99.90;;;;;;5031897;28;20475;-64
2023/06/18 08:08:15;;;;;;;19.70;14.73;;;25.20;99.90;;;;;;5031501;28;20135;-64
2023/06/18 08:10:41;;;;;;;20.38;13.13;;;25.20;99.90;;;;;;5030792;28;20113;-64
2023/06/18 08:13:07;;;;;;;18.40;13.13;;;25.40;99.90;;;;;;5031768;28;20065;-64
2023/06/18 08:15:32;;;;;;;17.35;13.30;;;25.40;99.90;;;;;;5031577;28;20037;-64
2023/06/18 08:17:58;;;;;;;15.02;12.43;;;25.60;99.90;;;;;;5030810;28;20124;-64
2023/06/18 08:20:23;;;;;;;15.98;11.65;;;25.70;99.90;;;;;;5031895;28;20388;-64
2023/06/18 08:22:49;;;;;;;15.15;11.27;;;25.90;99.90;;;;;;5032080;28;20124;-64
2023/06/18 08:25:15;;;;;;;17.33;11.45;;;25.90;99.40;;;;;;5031924;28;20041;-64
2023/06/18 08:27:41;;;;;;;18.38;11.88;;;26.10;98.90;;;;;;5031560;28;20045;-64
2023/06/18 08:30:07;;;;;;;17.40;11.95;;;26.20;98.00;;;;;;5031995;28;20038;-64
2023/06/18 08:32:32;;;;;;;13.10;10.80;;;26.30;98.20;;;;;;5031361;28;20150;-64
2023/06/18 08:34:58;;;;;;;14.38;11.20;;;26.40;96.90;;;;;;5031446;28;20045;-65
2023/06/18 08:37:23;;;;;;;14.10;9.45;;;26.50;96.20;;;;;;5031585;28;20446;-65
2023/06/18 08:39:49;;;;;;;10.23;8.45;;;26.50;94.10;;;;;;5032039;28;20471;-64
2023/06/18 08:42:20;;;;;;;12.30;8.57;;;26.50;92.00;;;;;;5030956;28;20438;-64
2023/06/18 08:44:46;;;;;;;11.73;8.65;;;26.60;91.00;;;;;;5033430;28;20052;-64
2023/06/18 08:47:12;;;;;;;13.73;9.25;;;26.70;90.70;;;;;;5035650;28;20037;-64
2023/06/18 08:49:41;;;;;;;15.70;8.85;;;26.90;90.20;;;;;;5035665;28;20037;-64
2023/06/18 08:52:09;;;;;;;12.90;8.73;;;26.90;88.40;;;;;;5035613;28;20179;-65
2023/06/18 08:54:36;;;;;;;12.73;9.50;;;27.10;89.20;;;;;;5035608;28;20037;-64
2023/06/18 08:57:20;;;;;;;10.07;7.68;;;27.10;88.30;;;;;;5035582;28;20060;-64
2023/06/18 08:59:47;;;;;;;10.65;8.50;;;27.10;82.90;;;;;;5035615;28;20091;-65
2023/06/18 09:02:13;;;;;;;11.85;9.20;;;27.20;81.70;;;;;;5035121;28;20041;-65
2023/06/18 09:04:39;;;;;;;9.85;8.63;;;27.20;81.30;;;;;;5035469;28;20059;-64
2023/06/18 09:07:06;;;;;;;10.57;7.88;;;27.30;80.70;;;;;;5035363;28;20138;-65
2023/06/18 09:09:31;;;;;;;9.82;7.50;;;27.40;79.00;;;;;;5035566;28;20125;-64
2023/06/18 09:11:57;;;;;;;10.77;8.57;;;27.60;76.20;;;;;;5035392;28;20506;-64
2023/06/18 09:14:24;;;;;;;10.48;8.40;;;27.70;75.20;;;;;;5034967;28;20041;-64
2023/06/18 09:16:51;;;;;;;10.70;8.38;;;27.80;74.40;;;;;;5035009;28;20056;-64
2023/06/18 09:19:18;;;;;;;8.93;7.57;;;27.90;74.50;;;;;;5035422;28;20056;-64
2023/06/18 09:21:44;;;;;;;11.13;9.23;;;28.00;74.30;;;;;;5035274;28;20037;-63
2023/06/18 09:24:22;;;;;;;13.60;8.35;;;28.00;73.70;;;;;;5033516;28;20553;-64
2023/06/18 09:26:59;;;;;;;11.25;7.97;;;28.00;73.00;;;;;;5034855;28;20037;-64
2023/06/18 09:29:29;;;;;;;10.35;7.88;;;28.00;72.10;;;;;;5035224;28;20041;-64
2023/06/18 09:31:54;;;;;;;10.70;7.60;;;28.00;70.90;;;;;;5034891;28;20061;-64
2023/06/18 09:34:20;;;;;;;10.63;8.00;;;28.00;72.20;;;;;;5034528;28;20311;-64
2023/06/18 09:36:50;;;;;;;11.15;7.57;;;28.10;70.60;;;;;;5034917;28;20087;-64
2023/06/18 09:39:21;;;;;;;10.50;7.75;;;28.20;70.40;;;;;;5034965;28;20080;-64
2023/06/18 09:41:49;;;;;;;8.48;7.35;;;28.20;68.60;;;;;;5034615;28;20124;-64
2023/06/18 09:44:15;;;;;;;8.60;7.43;;;28.30;68.40;;;;;;5033157;28;20041;-64
2023/06/18 09:46:56;;;;;;;8.27;7.30;;;28.30;69.20;;;;;;5033233;28;20046;-64
2023/06/18 09:49:23;;;;;;;9.68;7.53;;;28.50;69.00;;;;;;5034608;28;20096;-64
2023/06/18 09:51:50;;;;;;;9.68;7.70;;;28.60;67.30;;;;;;5016887;28;20052;-64
2023/06/18 09:54:16;;;;;;;11.15;7.63;;;28.80;67.70;;;;;;5034145;28;20091;-64
2023/06/18 09:56:56;;;;;;;11.45;7.90;;;28.80;66.20;;;;;;5033101;28;20041;-64
2023/06/18 09:59:23;;;;;;;11.35;7.40;;;28.80;65.80;;;;;;5034697;28;20045;-64
2023/06/18 10:01:49;;;;;;;12.90;7.63;;;28.90;65.60;;;;;;5034473;28;20411;-65
2023/06/18 10:04:14;;;;;;;9.43;7.28;;;29.00;64.70;;;;;;5060347;22;20045;-65
2023/06/18 10:06:44;;;;;;;9.30;7.07;;;29.10;63.80;;;;;;5053496;28;20041;-65
2023/06/18 10:09:10;;;;;;;10.15;7.68;;;29.30;64.30;;;;;;5045826;28;20120;-65
2023/06/18 10:11:37;;;;;;;11.40;7.68;;;29.20;63.10;;;;;;5053136;28;20520;-65
2023/06/18 10:14:10;;;;;;;9.73;7.13;;;29.20;63.00;;;;;;5053809;28;20041;-65
2023/06/18 10:16:37;;;;;;;8.80;7.25;;;29.20;61.50;;;;;;5054044;28;20163;-65
2023/06/18 10:19:11;;;;;;;9.95;7.35;;;29.30;61.70;;;;;;5054112;28;20052;-65
2023/06/18 10:21:47;;;;;;;8.98;7.07;;;29.40;61.00;;;;;;5054136;28;20052;-66
2023/06/18 10:24:17;;;;;;;9.63;6.95;;;29.50;60.90;;;;;;5053650;28;20509;-65
2023/06/18 10:26:43;;;;;;;10.57;7.28;;;29.60;60.80;;;;;;5053597;28;20048;-65
2023/06/18 10:29:12;;;;;;;9.00;7.43;;;29.60;59.90;;;;;;5034023;28;20435;-65
2023/06/18 10:31:38;;;;;;;8.93;7.35;;;29.50;59.50;;;;;;5033886;28;20048;-65
2023/06/18 10:34:05;;;;;;;9.60;8.02;;;29.40;59.70;;;;;;5033445;28;20159;-65
2023/06/18 10:36:31;;;;;;;8.95;7.55;;;29.40;60.00;;;;;;5032942;28;20058;-65
2023/06/18 10:38:58;;;;;;;9.07;7.50;;;29.40;59.80;;;;;;5032258;28;20131;-65
2023/06/18 10:41:23;;;;;;;7.93;6.90;;;29.40;59.90;;;;;;5033764;28;20041;-65
2023/06/18 10:43:50;;;;;;;8.63;7.47;;;29.40;60.10;;;;;;5033364;28;20087;-65
2023/06/18 10:46:17;;;;;;;8.20;7.35;;;29.30;59.50;;;;;;5033080;28;20450;-65
2023/06/18 10:49:11;;;;;;;8.82;7.38;;;29.20;58.80;;;;;;5033370;28;20042;-65
2023/06/18 10:51:36;;;;;;;9.65;8.05;;;29.20;58.90;;;;;;5033680;28;20574;-65
2023/06/18 10:54:29;;;;;;;8.32;7.43;;;29.10;58.20;;;;;;5032812;28;20033;-65
2023/06/18 10:56:55;;;;;;;10.05;7.25;;;29.00;58.80;;;;;;5033149;28;20041;-65
2023/06/18 10:59:45;;;;;;;9.60;7.78;;;29.00;60.00;;;;;;5033268;28;20107;-65
2023/06/18 11:02:12;;;;;;;8.75;7.18;;;29.00;60.10;;;;;;5033415;28;20053;-65
2023/06/18 11:04:39;;;;;;;10.77;6.78;;;28.90;58.60;;;;;;5032559;28;20120;-65
2023/06/18 11:07:18;;;;;;;8.43;6.75;;;28.90;58.80;;;;;;5032021;28;20116;-65
2023/06/18 11:09:49;;;;;;;9.95;6.50;;;28.90;57.90;;;;;;5033296;28;20460;-65
2023/06/18 11:12:23;;;;;;;7.57;6.72;;;28.90;57.90;;;;;;5032769;28;20044;-65
2023/06/18 11:15:18;;;;;;;7.80;6.75;;;28.80;57.10;;;;;;5032752;28;20041;-65
2023/06/18 11:17:51;;;;;;;12.63;7.63;;;28.90;58.20;;;;;;5032730;28;20045;-65
2023/06/18 11:20:19;;;;;;;14.98;7.32;;;28.80;57.60;;;;;;5031373;28;20099;-65
2023/06/18 11:22:45;;;;;;;9.45;6.85;;;28.80;58.10;;;;;;5032656;28;20491;-65
2023/06/18 11:25:14;;;;;;;11.70;7.25;;;28.90;58.50;;;;;;5032548;28;20053;-65
2023/06/18 11:27:45;;;;;;;10.00;7.57;;;28.90;56.80;;;;;;5032007;28;20047;-65
2023/06/18 11:30:12;;;;;;;7.80;6.93;;;28.80;56.90;;;;;;5032739;28;20033;-65
2023/06/18 11:32:40;;;;;;;8.30;7.43;;;28.80;57.50;;;;;;5031450;28;20045;-65
2023/06/18 11:35:07;;;;;;;9.63;7.00;;;28.80;57.30;;;;;;5032443;28;20044;-65
2023/06/18 11:37:34;;;;;;;7.57;6.75;;;28.90;57.70;;;;;;5032902;28;20073;-65
2023/06/18 11:39:59;;;;;;;9.65;7.00;;;29.00;58.60;;;;;;5032567;28;20495;-65
2023/06/18 11:42:26;;;;;;;10.38;7.50;;;29.00;57.70;;;;;;5032322;28;20044;-65
2023/06/18 11:44:54;;;;;;;9.90;7.38;;;29.10;56.90;;;;;;5031994;28;20395;-65
2023/06/18 11:47:20;;;;;;;7.90;6.97;;;29.10;56.50;;;;;;5032491;28;20091;-65
2023/06/18 11:49:51;;;;;;;9.65;7.57;;;29.10;56.30;;;;;;5032345;28;20037;-65
2023/06/18 11:52:21;;;;;;;7.78;6.32;;;29.10;56.40;;;;;;5032486;28;20037;-65
2023/06/18 11:54:48;;;;;;;10.77;7.72;;;29.10;57.00;;;;;;5031703;28;20037;-65
2023/06/18 11:57:16;;;;;;;8.82;6.80;;;29.10;56.10;;;;;;5031976;28;20041;-65
2023/06/18 11:59:43;;;;;;;8.63;7.00;;;29.00;56.30;;;;;;5032029;28;20057;-65
2023/06/18 12:02:18;;;;;;;8.20;7.32;;;29.10;55.60;;;;;;5032159;28;20038;-65
2023/06/18 12:04:44;;;;;;;8.35;6.60;;;29.10;55.10;;;;;;5031798;28;20045;-65
2023/06/18 12:07:18;;;;;;;8.48;7.00;;;29.20;55.20;;;;;;5032089;28;20517;-65
2023/06/18 12:09:45;;;;;;;9.57;7.03;;;29.30;55.20;;;;;;5030494;28;20053;-65
2023/06/18 12:12:22;;;;;;;8.30;6.90;;;29.40;55.10;;;;;;5030457;28;20044;-65
2023/06/18 12:15:16;;;;;;;8.27;7.00;;;29.40;55.30;;;;;;5030172;28;20045;-65
2023/06/18 12:18:17;;;;;;;8.05;7.03;;;29.40;55.30;;;;;;5031269;28;20124;-65
2023/06/18 12:20:42;;;;;;;7.45;6.65;;;29.50;56.00;;;;;;5032323;28;20068;-65
2023/06/18 12:23:08;;;;;;;7.60;6.80;;;29.40;56.10;;;;;;5030522;28;20065;-65
2023/06/18 12:25:34;;;;;;;9.25;7.38;;;29.50;55.10;;;;;;5030620;28;20087;-65
2023/06/18 12:28:02;;;;;;;7.72;6.63;;;29.50;55.20;;;;;;5031526;28;20037;-65
2023/06/18 12:30:36;;;;;;;11.15;6.80;;;29.60;55.50;;;;;;5031838;28;20384;-65
2023/06/18 12:33:06;;;;;;;7.80;6.35;;;29.60;55.40;;;;;;5031968;28;20037;-65